Dover, ID

3:14 AM PDT on October 23, 2014 (GMT -0700)
KIDSANDP2 | Change Station
CLOSE
Current Station
Personal Weather Station
Location: Sandpoint, ID
Elevation: 2111 ft
Nearby Weather Stations

Elev 2111 ft 48.28 °N, 116.56 °W | Updated 38 seconds ago

Rain
Rain
48.7 °F
Feels Like 49 °F
N
0.0
Wind Variable Wind from SW
Gusts 0.0 mph

Today
High -- | Low -- °F
--% Chance of Precip.
Yesterday
High -- | Low -- °F
Precip. -- in
7:18 AM 5:42 PM
Waning Crescent, 0% visible
Pressure 29.79 in
Visibility 7.0 miles
Clouds Scattered Clouds 3000 ft
Overcast 3600 ft
Windchill 49 °F
Dew Point 48 °F
Humidity 98%
Rainfall 0.07 in
Snow Depth Not available.
UV 0 out of 12
Pollen 1.10 out of 12
Air Quality Not available.
Flu Activity Sporadic
METAR KSZT 230955Z AUTO 22003KT 7SM RA SCT030 OVC036 09/09 A2979 RMK AO2

More Conditions Fewer Conditions

Pressure 29.79 in
Visibility 7.0 miles
Clouds Scattered Clouds 3000 ft
Overcast 3600 ft
Windchill 49 °F
Dew Point 48 °F
Humidity 98%
Rainfall 0.07 in
Snow Depth Not available.
UV 0 out of 12
Pollen 1.10 out of 12
Air Quality Not available.
Flu Activity Sporadic
METAR KSZT 230955Z AUTO 22003KT 7SM RA SCT030 OVC036 09/09 A2979 RMK AO2

More Conditions Fewer Conditions

10-Day Weather Forecast

Almanac

Astronomy

Oct. 23, 2014 Rise Set
Actual Time 7:18 AM PDT 5:42 PM PDT
Civil Twilight 6:46 AM PDT 6:14 PM PDT
Nautical Twilight 6:09 AM PDT 6:50 PM PDT
Astronomical Twilight 5:33 AM PDT 7:26 PM PDT
Moon 7:01 AM PDT 5:46 PM PDT
Length of Visible Light 11h 28m
Length of Day
10h 24m
Tomorrow will be 3m 18s shorter.
Waning Crescent, 0% of the Moon is Illuminated
Today
Waning Crescent
Oct 23
New
Oct 30
First Quarter
Nov 6
Full
Nov 14
Last Quarter

Today's Extremes

State Highs State Lows

Community

WunderPhotos

Upload Photos

1,764,202 photos uploaded!

Nearby

Snow Depth

Station Depth Elevation
Schweitzer Basin 0 in 6090 ft
Mosquito Ridge 0 in 5200 ft
Bear Mountain 0 in 5400 ft
Myrtle Creek 0 in 3520 ft
Hidden Lake 1 in 5040 ft

Earthquake Activity

City Distance Mag. Time & Date
No recent earthquake activity has been reported nearby.
Minimum magnitude displayed is 2.5.

Coastal Water Temperatures

Place Temperature
No Stations Reporting

Nearby Weather Stations